Time;durP1;ratioP1;P1;durP2;ratioP2;P2;SDS_P1;SDS_P2;PMS_P1;PMS_P2;Temp;Humidity;BMP_temperature;BMP_pressure;BME280_temperature;BME280_humidity;BME280_pressure;Samples;Min_cycle;Max_cycle;Signal;HPM_P1;HPM_P2
2023/08/21 00:01:00;;;;;;;;;2.67;2.00;;;;;;;;5048089;28;51180;-60
2023/08/21 00:03:25;;;;;;;;;2.00;2.00;;;;;;;;5040555;28;51128;-60
2023/08/21 00:05:50;;;;;;;;;1.67;1.00;;;;;;;;5051111;28;51178;-60
2023/08/21 00:08:15;;;;;;;;;1.00;1.00;;;;;;;;5048931;28;51147;-61
2023/08/21 00:10:41;;;;;;;;;1.00;1.00;;;;;;;;5050997;28;50964;-60
2023/08/21 00:13:06;;;;;;;;;1.00;1.00;;;;;;;;5046552;28;52051;-61
2023/08/21 00:15:31;;;;;;;;;0.00;0.00;;;;;;;;5048648;28;51041;-61
2023/08/21 00:17:57;;;;;;;;;1.33;1.00;;;;;;;;5050330;28;52014;-60
2023/08/21 00:20:22;;;;;;;;;1.00;1.00;;;;;;;;5054601;28;51104;-60
2023/08/21 00:22:47;;;;;;;;;1.67;1.33;;;;;;;;5054135;28;51901;-61
2023/08/21 00:25:12;;;;;;;;;1.00;1.00;;;;;;;;5051643;28;51403;-61
2023/08/21 00:27:38;;;;;;;;;1.00;1.00;;;;;;;;5052671;28;51237;-61
2023/08/21 00:30:03;;;;;;;;;2.00;2.00;;;;;;;;5054897;28;50922;-61
2023/08/21 00:32:28;;;;;;;;;2.00;2.00;;;;;;;;5043131;28;52608;-60
2023/08/21 00:34:53;;;;;;;;;1.00;1.00;;;;;;;;5055103;28;51052;-61
2023/08/21 00:37:19;;;;;;;;;2.00;1.00;;;;;;;;5051662;28;51293;-61
2023/08/21 00:39:44;;;;;;;;;1.00;1.00;;;;;;;;5059631;28;51250;-60
2023/08/21 00:42:09;;;;;;;;;1.00;1.00;;;;;;;;5052710;28;52795;-60
2023/08/21 00:44:35;;;;;;;;;0.67;0.67;;;;;;;;5054682;28;50973;-60
2023/08/21 00:47:00;;;;;;;;;1.00;1.00;;;;;;;;5053917;28;51346;-60
2023/08/21 00:49:26;;;;;;;;;1.33;1.33;;;;;;;;5045239;28;51138;-61
2023/08/21 00:51:51;;;;;;;;;1.00;1.00;;;;;;;;5054367;28;51310;-60
2023/08/21 00:54:16;;;;;;;;;2.33;1.00;;;;;;;;5034435;28;50952;-61
2023/08/21 00:56:42;;;;;;;;;1.00;1.00;;;;;;;;5051714;28;50953;-61
2023/08/21 00:59:07;;;;;;;;;2.00;1.00;;;;;;;;5048649;28;51062;-61
2023/08/21 01:01:33;;;;;;;;;2.00;1.00;;;;;;;;5052927;28;50897;-60
2023/08/21 01:03:58;;;;;;;;;1.00;1.00;;;;;;;;5031815;28;51294;-60
2023/08/21 01:06:23;;;;;;;;;0.33;0.33;;;;;;;;5052945;28;51064;-60
2023/08/21 01:09:07;;;;;;;;;2.00;1.00;;;;;;;;5051265;28;50925;-60
2023/08/21 01:11:41;;;;;;;;;1.00;1.00;;;;;;;;5054510;28;51889;-60
2023/08/21 01:14:13;;;;;;;;;1.00;1.00;;;;;;;;5052353;28;50862;-60
2023/08/21 01:16:40;;;;;;;;;1.00;1.00;;;;;;;;5052846;28;50924;-60
2023/08/21 01:19:10;;;;;;;;;1.67;1.00;;;;;;;;5052292;28;51322;-60
2023/08/21 01:21:35;;;;;;;;;1.00;1.00;;;;;;;;5050553;28;51156;-61
2023/08/21 01:24:00;;;;;;;;;0.00;0.00;;;;;;;;5049745;28;51127;-61
2023/08/21 01:26:25;;;;;;;;;1.00;1.00;;;;;;;;5046373;28;51372;-61
2023/08/21 01:28:51;;;;;;;;;1.67;1.00;;;;;;;;5054083;28;51256;-63
2023/08/21 01:31:23;;;;;;;;;1.33;1.00;;;;;;;;5051918;28;51730;-60
2023/08/21 01:33:53;;;;;;;;;1.00;1.00;;;;;;;;5051484;28;51177;-61
2023/08/21 01:36:18;;;;;;;;;1.00;1.00;;;;;;;;5046908;28;51192;-61
2023/08/21 01:38:44;;;;;;;;;2.00;1.00;;;;;;;;5052363;28;51012;-61
2023/08/21 01:41:09;;;;;;;;;2.00;1.67;;;;;;;;5053726;28;52499;-60
2023/08/21 01:43:34;;;;;;;;;0.67;0.67;;;;;;;;5049154;28;51053;-60
2023/08/21 01:46:01;;;;;;;;;1.00;1.00;;;;;;;;5054171;28;51053;-60
2023/08/21 01:48:26;;;;;;;;;0.00;0.00;;;;;;;;5050794;28;50893;-61
2023/08/21 01:50:51;;;;;;;;;0.67;0.67;;;;;;;;5051891;28;51011;-60
2023/08/21 01:53:16;;;;;;;;;1.67;1.67;;;;;;;;5047026;28;51073;-61
2023/08/21 01:55:41;;;;;;;;;2.67;2.00;;;;;;;;5051030;28;51148;-61
2023/08/21 01:58:06;;;;;;;;;1.00;1.00;;;;;;;;5049140;28;51014;-62
2023/08/21 02:00:32;;;;;;;;;1.00;1.00;;;;;;;;5053397;28;51958;-60
2023/08/21 02:02:57;;;;;;;;;2.00;1.00;;;;;;;;5053157;28;50883;-61
2023/08/21 02:05:22;;;;;;;;;1.00;1.00;;;;;;;;5053562;28;50907;-60
2023/08/21 02:07:47;;;;;;;;;1.00;1.00;;;;;;;;5053978;28;51036;-61
2023/08/21 02:10:13;;;;;;;;;1.00;1.00;;;;;;;;5052561;28;50969;-61
2023/08/21 02:12:39;;;;;;;;;1.00;1.00;;;;;;;;5052058;28;51076;-60
2023/08/21 02:15:04;;;;;;;;;2.33;1.00;;;;;;;;5053293;28;51362;-60
2023/08/21 02:17:29;;;;;;;;;1.00;1.00;;;;;;;;5050226;28;51446;-60
2023/08/21 02:19:55;;;;;;;;;2.00;1.00;;;;;;;;5052968;28;50889;-60
2023/08/21 02:22:20;;;;;;;;;1.00;1.00;;;;;;;;5051115;28;51257;-60
2023/08/21 02:24:45;;;;;;;;;2.00;1.00;;;;;;;;5049825;28;51234;-60
2023/08/21 02:27:10;;;;;;;;;1.33;1.33;;;;;;;;5050710;28;50997;-60
2023/08/21 02:29:35;;;;;;;;;2.00;2.00;;;;;;;;5050623;28;51239;-60
2023/08/21 02:32:01;;;;;;;;;1.00;1.00;;;;;;;;5050429;28;51120;-60
2023/08/21 02:34:26;;;;;;;;;3.00;2.00;;;;;;;;5049471;28;51064;-60
2023/08/21 02:36:52;;;;;;;;;1.00;1.00;;;;;;;;5053232;28;51017;-60
2023/08/21 02:39:17;;;;;;;;;2.00;1.00;;;;;;;;5051377;28;52136;-61
2023/08/21 02:41:42;;;;;;;;;3.00;2.00;;;;;;;;5048957;28;51120;-60
2023/08/21 02:44:07;;;;;;;;;1.00;1.00;;;;;;;;5048946;28;50944;-60
2023/08/21 02:46:34;;;;;;;;;3.00;3.00;;;;;;;;5048184;28;51470;-60
2023/08/21 02:48:59;;;;;;;;;3.00;2.00;;;;;;;;5050998;28;51125;-60
2023/08/21 02:51:24;;;;;;;;;1.67;1.00;;;;;;;;5047540;28;53680;-60
2023/08/21 02:53:49;;;;;;;;;2.67;2.00;;;;;;;;5047747;28;51211;-61
2023/08/21 02:56:14;;;;;;;;;2.33;2.33;;;;;;;;5052049;28;52767;-60
2023/08/21 02:58:40;;;;;;;;;3.00;2.00;;;;;;;;5049637;28;51982;-60
2023/08/21 03:01:05;;;;;;;;;3.00;2.00;;;;;;;;5051512;28;50929;-60
2023/08/21 03:03:32;;;;;;;;;3.00;2.33;;;;;;;;5049463;28;51127;-60
2023/08/21 03:05:57;;;;;;;;;1.67;1.67;;;;;;;;5050165;28;52092;-61
2023/08/21 03:08:22;;;;;;;;;2.00;2.00;;;;;;;;5039082;28;51652;-60
2023/08/21 03:10:48;;;;;;;;;4.00;3.00;;;;;;;;5037108;28;51087;-60
2023/08/21 03:13:13;;;;;;;;;3.00;2.67;;;;;;;;5050931;28;51123;-60
2023/08/21 03:15:38;;;;;;;;;3.67;3.00;;;;;;;;5052714;28;51297;-60
2023/08/21 03:18:03;;;;;;;;;4.00;2.67;;;;;;;;5048271;28;51209;-60
2023/08/21 03:20:29;;;;;;;;;5.33;3.00;;;;;;;;5055319;28;50988;-61
2023/08/21 03:22:54;;;;;;;;;6.00;5.00;;;;;;;;5068276;28;31695;-60
2023/08/21 03:25:19;;;;;;;;;4.00;4.00;;;;;;;;5066503;28;31909;-60
2023/08/21 03:27:49;;;;;;;;;5.33;5.33;;;;;;;;5066061;28;31954;-60
2023/08/21 03:30:14;;;;;;;;;9.00;7.67;;;;;;;;5099990;28;29063;-60
2023/08/21 03:32:39;;;;;;;;;7.67;7.33;;;;;;;;5090751;28;10797;-60
2023/08/21 03:35:05;;;;;;;;;6.00;6.00;;;;;;;;5078812;28;51002;-60
2023/08/21 03:37:30;;;;;;;;;6.33;5.33;;;;;;;;5073441;28;31787;-60
2023/08/21 03:39:56;;;;;;;;;11.00;7.00;;;;;;;;5070394;28;31984;-60
2023/08/21 03:42:21;;;;;;;;;5.33;5.33;;;;;;;;5064300;28;31771;-60
2023/08/21 03:44:49;;;;;;;;;7.67;7.00;;;;;;;;5068911;28;31749;-60
2023/08/21 03:47:14;;;;;;;;;3.67;3.00;;;;;;;;5069615;28;32702;-60
2023/08/21 03:49:39;;;;;;;;;5.00;5.00;;;;;;;;5059714;28;31881;-60
2023/08/21 03:52:05;;;;;;;;;2.00;2.00;;;;;;;;5071326;28;31808;-60
2023/08/21 03:54:30;;;;;;;;;4.33;4.00;;;;;;;;5091114;28;21688;-60
2023/08/21 03:56:55;;;;;;;;;5.00;4.00;;;;;;;;5092693;28;9196;-60
2023/08/21 03:59:22;;;;;;;;;2.67;2.00;;;;;;;;5088895;28;8855;-60
2023/08/21 04:01:47;;;;;;;;;3.00;2.00;;;;;;;;5087464;28;44566;-60
2023/08/21 04:04:13;;;;;;;;;1.00;1.00;;;;;;;;5067806;28;31943;-60
2023/08/21 04:06:38;;;;;;;;;2.67;1.00;;;;;;;;5069775;28;32786;-60
2023/08/21 04:09:06;;;;;;;;;2.00;2.00;;;;;;;;5071245;28;31755;-60
2023/08/21 04:11:31;;;;;;;;;2.00;1.67;;;;;;;;5072026;28;31775;-60
2023/08/21 04:13:57;;;;;;;;;3.00;2.00;;;;;;;;5077630;28;31621;-60
2023/08/21 04:16:22;;;;;;;;;2.67;2.00;;;;;;;;5076268;28;32970;-60
2023/08/21 04:18:47;;;;;;;;;3.00;2.00;;;;;;;;5071206;28;31760;-60
2023/08/21 04:21:12;;;;;;;;;2.00;2.00;;;;;;;;5070905;28;32581;-60
2023/08/21 04:23:38;;;;;;;;;1.00;1.00;;;;;;;;5073052;28;38112;-60
2023/08/21 04:26:03;;;;;;;;;3.00;1.67;;;;;;;;5072355;28;35256;-60
2023/08/21 04:28:32;;;;;;;;;2.00;1.33;;;;;;;;5067345;28;41483;-60
2023/08/21 04:30:57;;;;;;;;;2.33;2.00;;;;;;;;5072013;28;33825;-60
2023/08/21 04:33:24;;;;;;;;;1.33;1.00;;;;;;;;5069333;28;50207;-60
2023/08/21 04:35:49;;;;;;;;;2.00;1.33;;;;;;;;5070617;28;35829;-60
2023/08/21 04:38:14;;;;;;;;;1.00;1.00;;;;;;;;5070497;28;33998;-59
2023/08/21 04:40:39;;;;;;;;;3.00;2.00;;;;;;;;5074713;28;31321;-60
2023/08/21 04:43:04;;;;;;;;;2.00;2.00;;;;;;;;5074754;28;31874;-60
2023/08/21 04:45:30;;;;;;;;;3.00;2.00;;;;;;;;5072210;28;31789;-60
2023/08/21 04:47:55;;;;;;;;;2.00;1.00;;;;;;;;5066731;28;32634;-60
2023/08/21 04:50:20;;;;;;;;;2.00;2.00;;;;;;;;5066508;28;45430;-60
2023/08/21 04:52:45;;;;;;;;;1.00;1.00;;;;;;;;5072125;28;39729;-61
2023/08/21 04:55:10;;;;;;;;;1.00;1.00;;;;;;;;5073091;28;31375;-60
2023/08/21 04:57:36;;;;;;;;;2.33;1.00;;;;;;;;5070639;28;32048;-60
2023/08/21 05:00:01;;;;;;;;;2.33;2.00;;;;;;;;5070609;28;32030;-60
2023/08/21 05:02:26;;;;;;;;;1.67;1.33;;;;;;;;5074079;28;31975;-60
2023/08/21 05:04:51;;;;;;;;;1.00;1.00;;;;;;;;5071080;28;31807;-60
2023/08/21 05:07:17;;;;;;;;;1.00;1.00;;;;;;;;5069848;28;32857;-60
2023/08/21 05:09:42;;;;;;;;;1.33;1.33;;;;;;;;5071765;28;31727;-60
2023/08/21 05:12:07;;;;;;;;;2.00;2.00;;;;;;;;5083327;28;31685;-61
2023/08/21 05:14:32;;;;;;;;;1.67;1.00;;;;;;;;5071267;28;32691;-60
2023/08/21 05:16:58;;;;;;;;;3.33;1.67;;;;;;;;5070698;28;31807;-60
2023/08/21 05:19:24;;;;;;;;;2.67;2.00;;;;;;;;5069186;28;31756;-61
2023/08/21 05:21:50;;;;;;;;;1.67;1.67;;;;;;;;5051693;28;32424;-60
2023/08/21 05:24:15;;;;;;;;;2.00;1.67;;;;;;;;5073226;28;34477;-60
2023/08/21 05:26:40;;;;;;;;;1.00;0.33;;;;;;;;5072144;28;32050;-60
2023/08/21 05:29:05;;;;;;;;;3.33;2.00;;;;;;;;5092703;28;8832;-60
2023/08/21 05:31:30;;;;;;;;;2.00;2.00;;;;;;;;5075946;28;31354;-60
2023/08/21 05:33:56;;;;;;;;;1.00;0.67;;;;;;;;5076856;28;32033;-59
2023/08/21 05:36:21;;;;;;;;;4.33;4.33;;;;;;;;5082580;28;50285;-59
2023/08/21 05:38:47;;;;;;;;;1.67;1.00;;;;;;;;5066300;28;31992;-59
2023/08/21 05:41:13;;;;;;;;;28.00;27.25;;;;;;;;5068240;28;31993;-60
2023/08/21 05:43:39;;;;;;;;;5.33;4.00;;;;;;;;5069914;28;31991;-60
2023/08/21 05:46:05;;;;;;;;;3.00;2.00;;;;;;;;5069135;28;32043;-60
2023/08/21 05:48:31;;;;;;;;;0.33;0.00;;;;;;;;5063136;28;31939;-60
2023/08/21 05:50:57;;;;;;;;;0.00;0.00;;;;;;;;5073489;28;31740;-60
2023/08/21 05:53:22;;;;;;;;;1.00;0.33;;;;;;;;5071314;28;33062;-60
2023/08/21 05:55:47;;;;;;;;;1.67;1.00;;;;;;;;5071356;28;31760;-60
2023/08/21 05:58:12;;;;;;;;;1.33;1.00;;;;;;;;5070225;28;35246;-60
2023/08/21 06:00:38;;;;;;;;;1.00;1.00;;;;;;;;5068097;28;34006;-60
2023/08/21 06:03:03;;;;;;;;;3.00;2.00;;;;;;;;5079029;28;31832;-60
2023/08/21 06:05:28;;;;;;;;;3.67;2.00;;;;;;;;5103561;27;8814;-60
2023/08/21 06:07:53;;;;;;;;;1.00;1.00;;;;;;;;5086702;28;29215;-60
2023/08/21 06:10:19;;;;;;;;;3.33;3.00;;;;;;;;5086978;28;8818;-60
2023/08/21 06:12:44;;;;;;;;;0.00;0.00;;;;;;;;5090853;28;10432;-60
2023/08/21 06:15:09;;;;;;;;;1.00;1.00;;;;;;;;5088841;28;8839;-60
2023/08/21 06:17:35;;;;;;;;;1.00;1.00;;;;;;;;5090383;28;8812;-65
2023/08/21 06:20:00;;;;;;;;;1.00;1.00;;;;;;;;5089792;28;8819;-60
2023/08/21 06:22:25;;;;;;;;;2.00;1.00;;;;;;;;5088666;28;8837;-60
2023/08/21 06:24:51;;;;;;;;;1.00;1.00;;;;;;;;5090504;28;9670;-60
2023/08/21 06:27:16;;;;;;;;;1.00;1.00;;;;;;;;5091330;28;8798;-59
2023/08/21 06:29:41;;;;;;;;;2.67;1.00;;;;;;;;5090838;28;8856;-60
2023/08/21 06:32:06;;;;;;;;;2.67;2.67;;;;;;;;5088393;28;8794;-60
2023/08/21 06:34:32;;;;;;;;;2.33;2.00;;;;;;;;5089268;28;8857;-60
2023/08/21 06:36:57;;;;;;;;;1.00;1.00;;;;;;;;5091210;28;8795;-60
2023/08/21 06:39:22;;;;;;;;;1.00;1.00;;;;;;;;5086918;28;8779;-60
2023/08/21 06:41:47;;;;;;;;;1.00;1.00;;;;;;;;5090123;28;8896;-60
2023/08/21 06:44:12;;;;;;;;;1.00;1.00;;;;;;;;5086432;28;8912;-60
2023/08/21 06:46:38;;;;;;;;;1.00;1.00;;;;;;;;5087204;28;8790;-60
2023/08/21 06:49:03;;;;;;;;;1.00;0.67;;;;;;;;5088550;28;8826;-60
2023/08/21 06:51:28;;;;;;;;;1.33;0.67;;;;;;;;5087127;28;8802;-60
2023/08/21 06:53:54;;;;;;;;;1.67;1.67;;;;;;;;5089027;28;8889;-60
2023/08/21 06:56:19;;;;;;;;;1.00;1.00;;;;;;;;5086809;28;8893;-60
2023/08/21 06:58:44;;;;;;;;;0.33;0.33;;;;;;;;5087156;28;8791;-60
2023/08/21 07:01:09;;;;;;;;;2.00;1.00;;;;;;;;5084475;28;8834;-60
2023/08/21 07:03:35;;;;;;;;;1.00;1.00;;;;;;;;5084696;28;8936;-61
2023/08/21 07:06:00;;;;;;;;;2.00;1.00;;;;;;;;5087183;28;9566;-61
2023/08/21 07:08:26;;;;;;;;;1.00;1.00;;;;;;;;5070246;28;8844;-60
2023/08/21 07:10:51;;;;;;;;;3.00;2.00;;;;;;;;5090694;28;8842;-60
2023/08/21 07:13:16;;;;;;;;;1.67;1.67;;;;;;;;5085575;28;8844;-60
2023/08/21 07:15:42;;;;;;;;;2.00;0.67;;;;;;;;5088305;28;8843;-60
2023/08/21 07:18:07;;;;;;;;;0.33;0.33;;;;;;;;5077240;28;8830;-60
2023/08/21 07:20:33;;;;;;;;;1.00;1.00;;;;;;;;5092285;28;8806;-61
2023/08/21 07:22:58;;;;;;;;;1.00;0.00;;;;;;;;5091825;28;8879;-61
2023/08/21 07:25:25;;;;;;;;;0.67;0.00;;;;;;;;5093611;28;8954;-60
2023/08/21 07:27:50;;;;;;;;;0.00;0.00;;;;;;;;5089957;28;9651;-60
2023/08/21 07:30:16;;;;;;;;;2.00;1.33;;;;;;;;5090577;28;8915;-61
2023/08/21 07:32:41;;;;;;;;;2.33;2.00;;;;;;;;5086621;28;8803;-60
2023/08/21 07:35:06;;;;;;;;;0.00;0.00;;;;;;;;5093820;28;8819;-60
2023/08/21 07:37:32;;;;;;;;;0.00;0.00;;;;;;;;5093828;28;8818;-60
2023/08/21 07:39:57;;;;;;;;;1.33;1.33;;;;;;;;5091544;28;8807;-60
2023/08/21 07:42:22;;;;;;;;;0.67;0.33;;;;;;;;5089823;28;9501;-60
2023/08/21 07:44:48;;;;;;;;;0.00;0.00;;;;;;;;5093556;28;8795;-60
2023/08/21 07:47:13;;;;;;;;;0.00;0.00;;;;;;;;5093845;28;8806;-60
2023/08/21 07:49:38;;;;;;;;;1.00;1.00;;;;;;;;5092002;28;9007;-61
2023/08/21 07:52:04;;;;;;;;;2.33;0.00;;;;;;;;5093329;28;8830;-60
2023/08/21 07:54:29;;;;;;;;;0.00;0.00;;;;;;;;5084546;28;31486;-60
2023/08/21 07:56:54;;;;;;;;;1.33;1.00;;;;;;;;5076093;28;32011;-62
2023/08/21 07:59:19;;;;;;;;;0.00;0.00;;;;;;;;5093715;28;8869;-61
2023/08/21 08:01:45;;;;;;;;;1.00;1.00;;;;;;;;5079745;28;38185;-61
2023/08/21 08:04:10;;;;;;;;;0.67;0.67;;;;;;;;5083964;28;32065;-61
2023/08/21 08:06:36;;;;;;;;;1.67;1.67;;;;;;;;5091936;28;8849;-61
2023/08/21 08:09:03;;;;;;;;;3.33;2.67;;;;;;;;5088690;28;8830;-61
2023/08/21 08:11:28;;;;;;;;;2.00;2.00;;;;;;;;5088328;28;8795;-62
2023/08/21 08:13:53;;;;;;;;;2.00;1.67;;;;;;;;5084865;28;8855;-61
2023/08/21 08:16:19;;;;;;;;;1.00;0.00;;;;;;;;5096883;28;8839;-61
2023/08/21 08:18:44;;;;;;;;;0.33;0.00;;;;;;;;5093340;28;8831;-61
2023/08/21 08:21:10;;;;;;;;;0.00;0.00;;;;;;;;5071039;28;50231;-61
2023/08/21 08:23:35;;;;;;;;;1.67;1.00;;;;;;;;5071872;28;32091;-61
2023/08/21 08:26:01;;;;;;;;;0.00;0.00;;;;;;;;5075249;28;44760;-61
2023/08/21 08:28:26;;;;;;;;;0.00;0.00;;;;;;;;5069990;28;31956;-61
2023/08/21 08:30:51;;;;;;;;;0.33;0.33;;;;;;;;5076348;28;31920;-61
2023/08/21 08:33:16;;;;;;;;;1.67;1.67;;;;;;;;5088852;28;31971;-60
2023/08/21 08:35:42;;;;;;;;;2.33;2.00;;;;;;;;5064906;28;31981;-60
2023/08/21 08:38:07;;;;;;;;;0.00;0.00;;;;;;;;5091531;28;8826;-60
2023/08/21 08:40:33;;;;;;;;;0.00;0.00;;;;;;;;5084557;28;8853;-61
2023/08/21 08:42:58;;;;;;;;;0.00;0.00;;;;;;;;5093544;28;8799;-61
2023/08/21 08:45:28;;;;;;;;;0.00;0.00;;;;;;;;5096165;28;11488;-61
2023/08/21 08:47:54;;;;;;;;;0.75;0.25;;;;;;;;5092659;28;8795;-61
2023/08/21 08:50:20;;;;;;;;;0.25;0.25;;;;;;;;5095500;28;38400;-60
2023/08/21 08:52:45;;;;;;;;;1.33;1.33;;;;;;;;5079112;28;31965;-62
2023/08/21 08:55:11;;;;;;;;;0.00;0.00;;;;;;;;5071211;28;31954;-60
2023/08/21 08:57:36;;;;;;;;;0.00;0.00;;;;;;;;5077594;28;33750;-60
2023/08/21 09:00:03;;;;;;;;;0.00;0.00;;;;;;;;5073376;28;44873;-60
2023/08/21 09:02:28;;;;;;;;;0.00;0.00;;;;;;;;5097572;28;9582;-60
2023/08/21 09:04:53;;;;;;;;;0.00;0.00;;;;;;;;5092252;28;8870;-60
2023/08/21 09:07:21;;;;;;;;;1.00;0.67;;;;;;;;5104778;28;8789;-60
2023/08/21 09:09:49;;;;;;;;;1.00;0.50;;;;;;;;5092265;28;8807;-60
2023/08/21 09:12:15;;;;;;;;;0.00;0.00;;;;;;;;5092217;28;8809;-60
2023/08/21 09:14:40;;;;;;;;;1.00;1.00;;;;;;;;5080668;28;31895;-60
2023/08/21 09:17:06;;;;;;;;;1.00;1.00;;;;;;;;5072797;28;31920;-60
2023/08/21 09:19:31;;;;;;;;;1.00;1.00;;;;;;;;5092414;28;8814;-60
2023/08/21 09:21:56;;;;;;;;;1.00;1.00;;;;;;;;5082284;28;32045;-60
2023/08/21 09:24:22;;;;;;;;;0.33;0.33;;;;;;;;5092695;28;8830;-60
2023/08/21 09:26:47;;;;;;;;;2.33;1.67;;;;;;;;5079621;28;31881;-60
2023/08/21 09:29:12;;;;;;;;;0.67;0.67;;;;;;;;5070825;28;31904;-60
2023/08/21 09:31:37;;;;;;;;;1.00;0.00;;;;;;;;5072135;28;31994;-60
2023/08/21 09:34:06;;;;;;;;;1.00;1.00;;;;;;;;5077204;28;31999;-60
2023/08/21 09:36:32;;;;;;;;;0.33;0.33;;;;;;;;5072589;28;31844;-60
2023/08/21 09:38:57;;;;;;;;;1.00;0.00;;;;;;;;5092196;28;9968;-60
2023/08/21 09:41:23;;;;;;;;;0.00;0.00;;;;;;;;5091759;28;8960;-60
2023/08/21 09:43:48;;;;;;;;;2.00;1.33;;;;;;;;5090646;28;8991;-60
2023/08/21 09:46:16;;;;;;;;;1.33;1.33;;;;;;;;5091701;28;8992;-60
2023/08/21 09:48:41;;;;;;;;;3.50;1.75;;;;;;;;5091495;28;8855;-60
2023/08/21 09:51:06;;;;;;;;;1.00;1.00;;;;;;;;5090956;28;8841;-60
2023/08/21 09:53:32;;;;;;;;;0.00;0.00;;;;;;;;5069319;28;8817;-60
2023/08/21 09:56:01;;;;;;;;;2.00;1.00;;;;;;;;5089325;28;8846;-60
2023/08/21 09:58:26;;;;;;;;;1.00;1.00;;;;;;;;5086744;28;8783;-60
2023/08/21 10:00:55;;;;;;;;;1.33;1.33;;;;;;;;5078915;28;8880;-60
2023/08/21 10:03:21;;;;;;;;;2.75;2.00;;;;;;;;5091078;28;8811;-60
2023/08/21 10:05:47;;;;;;;;;1.00;1.00;;;;;;;;5091359;28;8849;-60
2023/08/21 10:08:15;;;;;;;;;1.00;1.00;;;;;;;;5055769;28;51053;-60
2023/08/21 10:10:40;;;;;;;;;2.00;2.00;;;;;;;;5052737;28;51199;-60
2023/08/21 10:13:07;;;;;;;;;2.00;2.00;;;;;;;;5069889;28;50371;-60
2023/08/21 10:15:33;;;;;;;;;2.00;2.00;;;;;;;;5073734;28;32750;-60
2023/08/21 10:18:17;;;;;;;;;0.00;0.00;;;;;;;;5072053;28;31812;-60
2023/08/21 10:20:42;;;;;;;;;2.00;2.00;;;;;;;;5088281;28;27510;-60
2023/08/21 10:23:07;;;;;;;;;3.00;2.00;;;;;;;;5091066;28;10311;-59
2023/08/21 10:25:40;;;;;;;;;3.00;2.33;;;;;;;;5087167;28;49207;-60
2023/08/21 10:28:06;;;;;;;;;2.67;2.00;;;;;;;;5085210;28;31212;-59
2023/08/21 10:30:31;;;;;;;;;3.00;2.67;;;;;;;;5091020;28;9073;-61
2023/08/21 10:32:57;;;;;;;;;4.33;3.33;;;;;;;;5091162;28;8912;-60
2023/08/21 10:35:24;;;;;;;;;2.00;2.00;;;;;;;;5090992;28;8849;-59
2023/08/21 10:38:08;;;;;;;;;1.00;1.00;;;;;;;;5091466;28;8806;-59
2023/08/21 10:40:34;;;;;;;;;2.00;2.00;;;;;;;;5090600;28;8957;-60
2023/08/21 10:42:59;;;;;;;;;2.25;2.00;;;;;;;;5090660;28;8888;-60
2023/08/21 10:45:24;;;;;;;;;3.33;2.33;;;;;;;;5090873;28;8818;-60
2023/08/21 10:47:50;;;;;;;;;1.00;1.00;;;;;;;;5091238;28;8827;-60
2023/08/21 10:50:16;;;;;;;;;5.00;4.67;;;;;;;;5090629;28;8819;-60
2023/08/21 10:52:43;;;;;;;;;1.00;1.00;;;;;;;;5090473;28;8860;-59
2023/08/21 10:55:09;;;;;;;;;2.25;1.00;;;;;;;;5089891;28;8818;-61
2023/08/21 10:57:35;;;;;;;;;0.33;0.33;;;;;;;;5090857;28;9552;-60
2023/08/21 11:00:11;;;;;;;;;2.00;2.00;;;;;;;;5090055;28;8930;-61
2023/08/21 11:02:37;;;;;;;;;3.75;3.50;;;;;;;;5090456;28;8803;-61
2023/08/21 11:05:04;;;;;;;;;4.00;2.00;;;;;;;;5082323;28;50859;-61
2023/08/21 11:07:29;;;;;;;;;2.00;2.00;;;;;;;;5051739;28;50982;-61
2023/08/21 11:09:55;;;;;;;;;2.33;1.67;;;;;;;;5051964;28;50848;-61
2023/08/21 11:12:21;;;;;;;;;1.67;1.67;;;;;;;;5051860;28;50829;-60
2023/08/21 11:14:46;;;;;;;;;6.00;5.33;;;;;;;;5051053;28;51819;-61
2023/08/21 11:17:12;;;;;;;;;4.00;4.00;;;;;;;;5051686;28;51093;-61
2023/08/21 11:19:38;;;;;;;;;3.00;3.00;;;;;;;;5052100;28;51014;-60
2023/08/21 11:22:04;;;;;;;;;3.33;2.33;;;;;;;;5052066;28;51287;-59
2023/08/21 11:24:39;;;;;;;;;4.00;3.00;;;;;;;;5051484;28;52164;-60
2023/08/21 11:27:05;;;;;;;;;4.00;2.67;;;;;;;;5052021;28;50971;-60
2023/08/21 11:29:36;;;;;;;;;0.67;0.67;;;;;;;;5051724;28;51059;-60
2023/08/21 11:32:02;;;;;;;;;2.00;2.00;;;;;;;;5051969;28;50966;-60
2023/08/21 11:34:27;;;;;;;;;2.00;2.00;;;;;;;;5050966;28;51355;-61
2023/08/21 11:36:52;;;;;;;;;2.00;2.00;;;;;;;;5051589;28;51066;-61
2023/08/21 11:39:17;;;;;;;;;2.00;2.00;;;;;;;;5051845;28;50954;-61
2023/08/21 11:41:52;;;;;;;;;4.00;4.00;;;;;;;;5044354;28;50971;-61
2023/08/21 11:44:18;;;;;;;;;3.00;3.00;;;;;;;;5050944;28;52034;-61
2023/08/21 11:46:43;;;;;;;;;2.00;2.00;;;;;;;;5051599;28;50972;-60
2023/08/21 11:49:08;;;;;;;;;2.67;2.00;;;;;;;;5051546;28;50934;-61
2023/08/21 11:51:39;;;;;;;;;1.67;1.00;;;;;;;;5051724;28;51407;-61
2023/08/21 11:54:05;;;;;;;;;1.00;1.00;;;;;;;;5051296;28;50930;-60
2023/08/21 11:56:31;;;;;;;;;2.67;2.00;;;;;;;;5051490;28;51157;-61
2023/08/21 11:58:58;;;;;;;;;2.00;1.00;;;;;;;;5051468;28;50943;-61
2023/08/21 12:01:23;;;;;;;;;1.67;1.67;;;;;;;;5051571;28;50955;-60
2023/08/21 12:03:54;;;;;;;;;2.00;2.00;;;;;;;;5050974;28;51872;-61
2023/08/21 12:06:19;;;;;;;;;1.00;1.00;;;;;;;;5052104;28;51275;-61
2023/08/21 12:08:45;;;;;;;;;2.00;2.00;;;;;;;;5054878;28;51053;-61
2023/08/21 12:11:11;;;;;;;;;1.33;1.33;;;;;;;;5055125;28;51305;-61
2023/08/21 12:13:36;;;;;;;;;1.00;1.00;;;;;;;;5050635;28;52851;-61
2023/08/21 12:16:02;;;;;;;;;1.33;1.33;;;;;;;;5054297;28;51120;-61
2023/08/21 12:18:27;;;;;;;;;2.33;2.33;;;;;;;;5053278;28;51413;-61
2023/08/21 12:20:52;;;;;;;;;2.00;1.00;;;;;;;;5055091;28;51067;-61
2023/08/21 12:23:17;;;;;;;;;1.00;1.00;;;;;;;;5054502;28;51966;-60
2023/08/21 12:25:42;;;;;;;;;1.00;0.33;;;;;;;;5053627;28;50976;-61
2023/08/21 12:28:08;;;;;;;;;0.00;0.00;;;;;;;;5054491;28;51017;-60
2023/08/21 12:30:33;;;;;;;;;0.00;0.00;;;;;;;;5054695;28;51351;-60
2023/08/21 12:32:59;;;;;;;;;0.67;0.67;;;;;;;;5054209;28;51050;-60
2023/08/21 12:35:24;;;;;;;;;1.00;0.67;;;;;;;;5054225;28;51008;-60
2023/08/21 12:37:49;;;;;;;;;1.00;0.00;;;;;;;;5054773;28;50992;-61
2023/08/21 12:40:14;;;;;;;;;1.00;1.00;;;;;;;;5054659;28;51310;-60
2023/08/21 12:42:39;;;;;;;;;1.00;1.00;;;;;;;;5053707;28;52126;-60
2023/08/21 12:45:05;;;;;;;;;1.00;1.00;;;;;;;;5054221;28;50997;-61
2023/08/21 12:47:33;;;;;;;;;1.00;1.00;;;;;;;;5052966;28;51010;-61
2023/08/21 12:49:58;;;;;;;;;1.00;1.00;;;;;;;;5054829;28;51279;-60
2023/08/21 12:52:23;;;;;;;;;2.00;1.00;;;;;;;;5053768;28;51848;-61
2023/08/21 12:54:49;;;;;;;;;0.00;0.00;;;;;;;;5053849;28;51001;-60
2023/08/21 12:57:16;;;;;;;;;1.00;1.00;;;;;;;;5053994;28;50897;-60
2023/08/21 12:59:41;;;;;;;;;2.00;2.00;;;;;;;;5054204;28;51683;-61
2023/08/21 13:02:07;;;;;;;;;1.00;1.00;;;;;;;;5053595;28;51113;-60
2023/08/21 13:04:32;;;;;;;;;0.33;0.33;;;;;;;;5053943;28;50987;-60
2023/08/21 13:06:58;;;;;;;;;1.00;1.00;;;;;;;;5054187;28;51149;-60
2023/08/21 13:09:25;;;;;;;;;2.33;2.00;;;;;;;;5054535;28;51028;-60
2023/08/21 13:11:50;;;;;;;;;1.00;1.00;;;;;;;;5053539;28;51844;-60
2023/08/21 13:14:15;;;;;;;;;1.67;1.00;;;;;;;;5053114;28;51164;-59
2023/08/21 13:16:40;;;;;;;;;1.67;0.67;;;;;;;;5053679;28;51122;-60
2023/08/21 13:19:05;;;;;;;;;1.00;1.00;;;;;;;;5053721;28;51058;-60
2023/08/21 13:21:31;;;;;;;;;1.33;1.33;;;;;;;;5053662;28;51722;-60
2023/08/21 13:23:56;;;;;;;;;2.00;2.00;;;;;;;;5052482;28;50989;-60
2023/08/21 13:26:21;;;;;;;;;2.00;2.00;;;;;;;;5053647;28;51303;-60
2023/08/21 13:28:46;;;;;;;;;2.33;2.00;;;;;;;;5053501;28;51121;-60
2023/08/21 13:31:11;;;;;;;;;1.00;1.00;;;;;;;;5053186;28;51975;-60
2023/08/21 13:33:46;;;;;;;;;2.00;2.00;;;;;;;;5049289;28;51232;-60
2023/08/21 13:36:11;;;;;;;;;2.00;2.00;;;;;;;;5053813;28;50919;-60
2023/08/21 13:38:37;;;;;;;;;1.33;0.67;;;;;;;;5053646;28;50990;-60
2023/08/21 13:41:02;;;;;;;;;2.67;2.00;;;;;;;;5053405;28;51001;-60
2023/08/21 13:43:27;;;;;;;;;4.00;3.67;;;;;;;;5053359;28;51126;-60
2023/08/21 13:45:52;;;;;;;;;3.00;2.33;;;;;;;;5053629;28;51203;-59
2023/08/21 13:48:17;;;;;;;;;3.00;2.00;;;;;;;;5053733;28;50878;-59
2023/08/21 13:50:43;;;;;;;;;1.67;1.00;;;;;;;;5053124;28;50954;-59
2023/08/21 13:53:08;;;;;;;;;1.00;1.00;;;;;;;;5052937;28;50817;-59
2023/08/21 13:55:33;;;;;;;;;1.67;1.00;;;;;;;;5052782;28;51121;-60
2023/08/21 13:57:58;;;;;;;;;2.00;1.67;;;;;;;;5053306;28;51042;-60
2023/08/21 14:00:23;;;;;;;;;1.00;1.00;;;;;;;;5052830;28;50954;-60
2023/08/21 14:02:49;;;;;;;;;6.00;5.33;;;;;;;;5052989;28;51090;-59
2023/08/21 14:05:15;;;;;;;;;3.00;3.00;;;;;;;;5052798;28;51008;-60
2023/08/21 14:07:40;;;;;;;;;3.00;3.00;;;;;;;;5051712;28;51192;-60
2023/08/21 14:10:06;;;;;;;;;2.67;2.00;;;;;;;;5052482;28;51066;-59
2023/08/21 14:12:32;;;;;;;;;2.00;2.00;;;;;;;;5052681;28;51050;-59
2023/08/21 14:14:58;;;;;;;;;1.00;1.00;;;;;;;;5046627;28;51493;-60
2023/08/21 14:17:23;;;;;;;;;1.67;1.67;;;;;;;;5052150;28;50958;-59
2023/08/21 14:19:48;;;;;;;;;2.00;2.00;;;;;;;;5052394;28;51703;-60
2023/08/21 14:22:14;;;;;;;;;1.00;1.00;;;;;;;;5053139;28;51001;-60
2023/08/21 14:24:39;;;;;;;;;4.00;4.00;;;;;;;;5052814;28;50919;-59
2023/08/21 14:27:04;;;;;;;;;0.67;0.67;;;;;;;;5052784;28;50921;-60
2023/08/21 14:29:29;;;;;;;;;1.00;1.00;;;;;;;;5051062;28;51785;-59
2023/08/21 14:31:55;;;;;;;;;1.00;1.00;;;;;;;;5052361;28;50985;-60
2023/08/21 14:34:20;;;;;;;;;3.00;3.00;;;;;;;;5052012;28;51134;-60
2023/08/21 14:36:47;;;;;;;;;4.00;4.00;;;;;;;;5052740;28;50947;-60